Alford, Florida
Current Conditions -  °F | °C
As of 10:53 AM on Thursday 23 Oct 2014 (Local Time) from KMAI Reporting Station
Clear Clear  
Wind Chill: 19°   Ceiling: Unl
Heat Index: 19°   Visibility: 10mi
Dew Point:   Wind: 8mph
Humidity: 50%   Direction: 110°ESE
Pressure: 30.1"   Gusts: NA
Location:  30.69°N, 85.39°W
Report Text: KMAI 231553Z AUTO 11007KT 10SM CLR 19/08 A3010 RMK AO2 SLP192 T01890083 $
Loading
Personal Weather Stations






























Interactive Weather Map
Tropical Storm Tracking
New forecast layout! Learn more

10-Day Weather Forecast

Advertisements
Track Severe Weather on mobile